Time;durP1;ratioP1;P1;durP2;ratioP2;P2;SDS_P1;SDS_P2;PMS_P1;PMS_P2;Temp;Humidity;BMP_temperature;BMP_pressure;BME280_temperature;BME280_humidity;BME280_pressure;Samples;Min_cycle;Max_cycle;Signal;HPM_P1;HPM_P2
2023/09/18 00:01:19;;;;;;;48.17;15.48;;;;;;;18.48;76.21;98905.28;5060416;28;20044;-47
2023/09/18 00:03:46;;;;;;;48.60;16.10;;;;;;;18.46;76.33;98901.91;5078695;28;20044;-49
2023/09/18 00:06:13;;;;;;;47.88;17.52;;;;;;;18.44;76.41;98909.00;5067531;28;20625;-50
2023/09/18 00:08:40;;;;;;;55.35;18.80;;;;;;;18.41;76.72;98901.28;5063466;28;20060;-47
2023/09/18 00:11:07;;;;;;;53.83;16.38;;;;;;;18.35;77.35;98899.03;5063106;28;20067;-47
2023/09/18 00:13:34;;;;;;;50.10;17.38;;;;;;;18.35;76.90;98885.91;5086270;28;20048;-50
2023/09/18 00:16:03;;;;;;;59.67;19.02;;;;;;;18.36;77.02;98879.72;5079795;28;20078;-50
2023/09/18 00:18:31;;;;;;;49.28;18.05;;;;;;;18.37;76.71;98886.66;5082062;28;20067;-55
2023/09/18 00:20:57;;;;;;;53.80;18.63;;;;;;;18.40;77.55;98876.00;5085105;28;20127;-48
2023/09/18 00:23:25;;;;;;;53.50;17.92;;;;;;;18.43;77.33;98867.13;5083007;28;20040;-45
2023/09/18 00:25:52;;;;;;;54.05;17.73;;;;;;;18.44;77.22;98853.94;5079681;28;20047;-46
2023/09/18 00:28:18;;;;;;;53.85;16.13;;;;;;;18.47;76.84;98845.91;5081291;28;20142;-53
2023/09/18 00:30:48;;;;;;;55.60;16.58;;;;;;;18.48;76.74;98847.59;5080002;28;20052;-53
2023/09/18 00:33:16;;;;;;;56.15;18.50;;;;;;;18.50;76.58;98830.03;5090354;28;20180;-50
2023/09/18 00:35:48;;;;;;;56.03;17.65;;;;;;;18.52;76.71;98839.56;5076568;28;20044;-50
2023/09/18 00:38:16;;;;;;;56.13;17.75;;;;;;;18.54;76.70;98840.34;5082429;28;20063;-51
2023/09/18 00:40:43;;;;;;;50.38;18.52;;;;;;;18.55;77.13;98836.78;5089009;28;20043;-48
2023/09/18 00:43:11;;;;;;;58.65;16.77;;;;;;;18.55;76.93;98832.41;5081757;28;20087;-50
2023/09/18 00:45:42;;;;;;;51.20;17.52;;;;;;;18.56;77.15;98827.97;5079116;28;20044;-53
2023/09/18 00:48:09;;;;;;;50.50;16.67;;;;;;;18.57;77.13;98829.66;5084105;28;20051;-51
2023/09/18 00:50:37;;;;;;;55.38;18.05;;;;;;;18.56;76.84;98810.50;5066514;28;20050;-45
2023/09/18 00:53:05;;;;;;;53.50;17.15;;;;;;;18.56;76.77;98807.00;5084270;28;20044;-45
2023/09/18 00:55:32;;;;;;;51.70;18.17;;;;;;;18.54;76.80;98799.22;5080253;28;20470;-51
2023/09/18 00:57:58;;;;;;;50.55;19.73;;;;;;;18.54;77.25;98790.53;5076730;28;20421;-46
2023/09/18 01:00:25;;;;;;;55.55;17.88;;;;;;;18.55;76.74;98789.59;5081180;28;20051;-52
2023/09/18 01:02:52;;;;;;;59.33;17.85;;;;;;;18.53;77.40;98792.31;5076482;28;20045;-46
2023/09/18 01:05:20;;;;;;;68.75;18.77;;;;;;;18.50;77.55;98785.47;5083911;28;20501;-48
2023/09/18 01:07:47;;;;;;;70.70;19.42;;;;;;;18.46;77.76;98776.06;5078601;28;20048;-50
2023/09/18 01:10:16;;;;;;;67.20;19.23;;;;;;;18.45;77.83;98771.78;5076445;28;20086;-48
2023/09/18 01:15:30;;;;;;;62.28;18.00;;;;;;;18.40;78.24;98768.53;5036780;27;20417;-49
2023/09/18 01:17:57;;;;;;;71.70;17.67;;;;;;;18.41;77.48;98764.97;5006650;28;20903;-48
2023/09/18 01:20:24;;;;;;;71.55;18.48;;;;;;;18.42;78.09;98769.31;5002888;28;20058;-49
2023/09/18 01:22:51;;;;;;;63.10;18.40;;;;;;;18.40;78.26;98755.44;5001548;28;20404;-52
2023/09/18 01:25:17;;;;;;;59.15;17.23;;;;;;;18.41;78.12;98756.28;5009220;28;20727;-51
2023/09/18 01:27:44;;;;;;;69.43;16.13;;;;;;;18.41;78.01;98741.38;5008531;28;20046;-47
2023/09/18 01:30:12;;;;;;;69.90;18.63;;;;;;;18.42;77.91;98732.63;5004175;28;20080;-47
2023/09/18 01:32:40;;;;;;;58.28;16.35;;;;;;;18.45;77.37;98726.34;5002353;28;20050;-49
2023/09/18 01:35:09;;;;;;;60.25;15.02;;;;;;;18.47;78.32;98733.19;5005896;28;20074;-52
2023/09/18 01:37:37;;;;;;;62.28;17.15;;;;;;;18.47;78.27;98733.19;5000982;28;20077;-50
2023/09/18 01:40:06;;;;;;;57.45;15.55;;;;;;;18.46;77.83;98744.63;5022341;28;20053;-53
2023/09/18 01:42:34;;;;;;;46.65;13.90;;;;;;;18.45;78.46;98745.56;5006765;28;20851;-49
2023/09/18 01:45:02;;;;;;;45.80;13.77;;;;;;;18.43;78.47;98728.19;5006229;28;20107;-51
2023/09/18 01:47:28;;;;;;;44.53;12.77;;;;;;;18.42;78.18;98727.38;5020812;28;20049;-49
2023/09/18 01:49:55;;;;;;;40.10;12.63;;;;;;;18.42;78.30;98716.88;5025876;28;20056;-46
2023/09/18 01:52:22;;;;;;;28.40;9.55;;;;;;;18.43;78.31;98734.31;5022702;28;20057;-49
2023/09/18 01:54:49;;;;;;;24.85;9.93;;;;;;;18.43;78.33;98739.53;5018304;28;20046;-43
2023/09/18 01:57:16;;;;;;;16.83;7.70;;;;;;;18.43;78.04;98722.97;5022456;28;20049;-52
2023/09/18 10:49:03;;;;;;;2.22;1.25;;;;;;;24.27;55.41;98414.44;6093406;23;1344925;-46
2023/09/18 10:51:33;;;;;;;4.70;1.00;;;;;;;24.10;55.49;98398.19;6125169;23;20028;-42
2023/09/18 10:54:00;;;;;;;3.60;1.40;;;;;;;23.99;55.51;98411.47;6128453;23;20025;-44
2023/09/18 10:56:27;;;;;;;3.70;1.35;;;;;;;23.93;55.77;98404.06;6126774;23;20025;-47
2023/09/18 10:59:05;;;;;;;1.90;1.35;;;;;;;23.75;55.30;98404.66;6130654;23;20028;-44
2023/09/18 11:01:32;;;;;;;2.83;1.15;;;;;;;23.62;56.07;98405.69;6119244;23;20025;-46
2023/09/18 11:04:03;;;;;;;2.67;1.15;;;;;;;23.49;55.37;98399.75;6064709;23;20075;-50
2023/09/18 11:06:30;;;;;;;3.00;1.45;;;;;;;23.28;56.00;98407.63;6037034;23;20075;-46
2023/09/18 11:09:03;;;;;;;2.58;1.25;;;;;;;23.08;56.62;98408.31;6037591;23;20051;-52
2023/09/18 11:11:32;;;;;;;5.15;1.35;;;;;;;22.93;56.67;98420.09;6036377;23;20024;-48
2023/09/18 11:13:59;;;;;;;3.40;1.50;;;;;;;22.73;57.13;98417.25;6034095;23;20680;-43
2023/09/18 11:21:39;;;;;;;4.05;1.55;;;;;;;22.23;59.11;98423.72;5038054;28;20405;-47
2023/09/18 11:24:11;;;;;;;1.55;1.33;;;;;;;22.07;59.13;98414.38;4999640;28;20062;-44
2023/09/18 11:26:41;;;;;;;4.63;1.55;;;;;;;22.02;59.96;98410.41;5001813;28;20054;-43
2023/09/18 11:29:10;;;;;;;4.78;1.25;;;;;;;21.98;60.19;98415.06;4999512;28;20081;-50
2023/09/18 11:31:47;;;;;;;5.20;1.73;;;;;;;21.91;61.24;98411.22;5005665;28;20426;-52
2023/09/18 11:36:52;;;;;;;5.88;1.45;;;;;;;21.95;61.39;98399.47;5045071;27;20401;-49
2023/09/18 11:39:40;;;;;;;5.70;1.38;;;;;;;21.80;61.23;98399.72;5003035;28;20108;-43
2023/09/18 11:44:46;;;;;;;4.32;2.50;;;;;;;21.67;61.66;98406.81;5084815;27;20409;-44
2023/09/18 11:47:21;;;;;;;8.32;2.95;;;;;;;21.55;61.36;98404.16;5030893;28;20041;-49
2023/09/18 11:49:52;;;;;;;4.93;2.88;;;;;;;21.42;62.13;98404.22;5042942;28;20045;-48
2023/09/18 11:52:21;;;;;;;3.38;2.72;;;;;;;21.31;62.37;98406.84;5045260;28;20045;-49
2023/09/18 11:54:48;;;;;;;6.28;3.22;;;;;;;21.21;63.03;98408.47;5042564;28;20053;-48
2023/09/18 11:57:15;;;;;;;4.38;3.20;;;;;;;21.16;62.89;98408.78;5040621;28;20569;-49
2023/09/18 11:59:43;;;;;;;6.07;3.03;;;;;;;21.09;63.01;98412.81;5044617;28;20053;-48
2023/09/18 12:02:20;;;;;;;;;;;;;;;20.85;63.97;98421.50;5043508;28;20494;-48
2023/09/18 12:04:48;;;;;;;;;;;;;;;20.79;63.69;98418.38;5046261;28;20393;-48
2023/09/18 12:07:15;;;;;;;4.30;2.72;;;;;;;20.96;63.61;98413.72;5038969;28;19921;-47
2023/09/18 12:09:41;;;;;;;3.50;2.75;;;;;;;20.93;64.29;98419.19;5042654;28;20061;-50
2023/09/18 12:12:09;;;;;;;4.63;3.50;;;;;;;20.88;64.13;98421.28;5041214;28;20053;-44
2023/09/18 12:14:37;;;;;;;3.72;3.20;;;;;;;20.85;64.13;98424.16;5041546;28;20064;-47
2023/09/18 12:17:04;;;;;;;5.57;3.35;;;;;;;20.79;64.09;98426.28;5035588;28;20049;-44
2023/09/18 12:19:30;;;;;;;3.30;2.67;;;;;;;20.73;64.89;98428.50;5030157;28;20049;-52
2023/09/18 12:21:57;;;;;;;4.57;3.58;;;;;;;20.72;64.60;98427.66;5033214;28;20094;-48
2023/09/18 12:24:26;;;;;;;3.97;3.08;;;;;;;20.74;64.93;98425.75;5043317;28;20047;-46
2023/09/18 12:26:53;;;;;;;3.63;2.58;;;;;;;20.76;65.00;98433.53;5029869;28;20057;-44
2023/09/18 12:29:21;;;;;;;3.42;2.75;;;;;;;20.73;64.65;98426.69;5046933;28;20049;-48
2023/09/18 12:31:50;;;;;;;3.78;3.40;;;;;;;20.70;64.96;98434.81;5001270;28;20446;-49
2023/09/18 12:34:19;;;;;;;3.97;2.95;;;;;;;20.67;64.78;98435.03;5024730;28;20056;-51
2023/09/18 12:36:47;;;;;;;2.75;2.50;;;;;;;20.66;65.13;98428.06;5032920;28;20076;-49
2023/09/18 12:39:16;;;;;;;3.30;2.72;;;;;;;20.70;64.84;98429.53;5036447;28;20064;-48
2023/09/18 12:41:44;;;;;;;2.90;2.60;;;;;;;20.80;65.76;98419.19;5017722;28;20057;-50
2023/09/18 12:44:11;;;;;;;4.70;3.30;;;;;;;20.95;66.06;98427.84;5042394;28;20103;-49
2023/09/18 12:46:41;;;;;;;3.13;1.75;;;;;;;21.06;65.86;98425.28;5027592;28;20413;-45
2023/09/18 12:51:58;;;;;;;2.47;1.23;;;;;;;21.16;65.94;98430.69;5042456;27;20418;-49
2023/09/18 12:54:42;;;;;;;2.45;1.17;;;;;;;21.10;65.42;98432.94;5021494;28;20659;-51
2023/09/18 12:57:10;;;;;;;3.40;1.30;;;;;;;21.09;65.27;98426.84;5017728;28;20049;-44
2023/09/18 12:59:37;;;;;;;1.80;1.58;;;;;;;21.03;65.29;98433.38;5017898;28;20521;-50
2023/09/18 13:02:05;;;;;;;3.30;1.52;;;;;;;20.98;65.17;98426.78;5019732;28;20054;-48
2023/09/18 13:04:36;;;;;;;2.13;1.40;;;;;;;20.93;65.19;98440.25;5010999;28;20097;-49
2023/09/18 13:07:11;;;;;;;4.28;3.08;;;;;;;20.84;65.54;98439.06;5021653;28;20736;-44
2023/09/18 13:09:39;;;;;;;3.03;0.60;;;;;;;20.59;64.57;98447.88;5016643;28;20080;-46
2023/09/18 13:12:08;;;;;;;1.88;0.43;;;;;;;20.33;64.38;98447.91;5020371;28;20049;-43
2023/09/18 13:15:04;;;;;;;1.98;1.58;;;;;;;20.02;64.56;98456.09;5011345;28;20445;-52
2023/09/18 13:17:44;;;;;;;1.83;1.05;;;;;;;19.73;64.31;98459.69;5015581;28;20050;-50
2023/09/18 13:20:14;;;;;;;0.90;0.73;;;;;;;19.65;64.58;98464.63;5012614;28;20053;-51
2023/09/18 13:22:42;;;;;;;0.98;0.73;;;;;;;19.63;64.67;98479.66;5012369;28;20053;-46
2023/09/18 13:25:10;;;;;;;1.48;1.00;;;;;;;19.61;65.19;98484.16;5009032;28;20061;-50
2023/09/18 13:27:38;;;;;;;3.38;2.60;;;;;;;19.68;65.70;98474.94;5020665;28;20453;-45
2023/09/18 13:30:08;;;;;;;2.05;1.00;;;;;;;19.76;65.02;98475.25;5013905;28;20065;-49
2023/09/18 13:32:36;;;;;;;1.52;0.93;;;;;;;19.76;64.79;98467.38;5011610;28;20057;-48
2023/09/18 13:35:07;;;;;;;4.60;1.10;;;;;;;19.76;64.69;98477.88;5014708;28;20487;-44
2023/09/18 13:37:35;;;;;;;1.77;0.82;;;;;;;19.79;64.78;98487.34;5018935;28;20049;-49
2023/09/18 13:40:02;;;;;;;2.80;1.02;;;;;;;19.75;64.68;98510.34;5012643;28;20057;-49
2023/09/18 13:42:30;;;;;;;2.00;0.63;;;;;;;19.65;63.73;98511.88;5020483;28;20060;-45
2023/09/18 13:45:00;;;;;;;1.15;0.80;;;;;;;19.60;63.82;98516.59;5019226;28;20054;-44
2023/09/18 13:47:28;;;;;;;0.80;0.50;;;;;;;19.56;64.25;98517.75;5017376;28;20050;-42
2023/09/18 13:49:56;;;;;;;1.00;0.50;;;;;;;19.57;64.21;98524.69;4996018;28;20177;-50
2023/09/18 13:52:24;;;;;;;2.25;1.17;;;;;;;19.58;63.68;98521.09;5022168;28;20403;-49
2023/09/18 13:54:52;;;;;;;1.17;0.63;;;;;;;19.61;64.05;98515.66;5019934;28;20053;-40
2023/09/18 13:57:19;;;;;;;1.30;0.85;;;;;;;19.61;64.32;98523.53;5023713;28;20149;-51
2023/09/18 13:59:48;;;;;;;1.33;1.13;;;;;;;19.63;64.26;98509.34;5018556;28;20480;-47
2023/09/18 14:02:16;;;;;;;1.15;0.75;;;;;;;19.69;64.09;98529.13;5010529;28;20073;-44
2023/09/18 14:04:43;;;;;;;0.95;0.52;;;;;;;19.80;64.40;98530.22;5005342;28;20054;-43
2023/09/18 14:07:11;;;;;;;2.33;0.90;;;;;;;19.89;64.06;98524.34;5007432;28;20076;-45
2023/09/18 14:09:39;;;;;;;2.95;2.75;;;;;;;19.91;63.35;98527.72;5004948;28;20701;-41
2023/09/18 14:12:07;;;;;;;3.05;2.65;;;;;;;19.85;63.35;98528.13;5005521;28;20897;-47
2023/09/18 14:14:35;;;;;;;2.13;0.80;;;;;;;19.69;62.27;98529.13;4993622;28;20050;-44
2023/09/18 14:17:03;;;;;;;2.00;0.90;;;;;;;19.71;63.02;98537.75;5000290;28;22115;-42
2023/09/18 14:19:30;;;;;;;1.38;0.88;;;;;;;19.68;62.92;98535.34;4994686;28;20049;-48
2023/09/18 14:21:57;;;;;;;1.67;1.23;;;;;;;19.70;62.84;98557.09;4995035;28;20579;-45
2023/09/18 14:24:25;;;;;;;4.43;1.15;;;;;;;19.61;62.72;98545.41;4998873;28;20042;-46
2023/09/18 14:26:52;;;;;;;2.67;0.73;;;;;;;19.52;62.78;98554.69;4993626;28;20049;-42
2023/09/18 14:29:19;;;;;;;1.00;0.45;;;;;;;19.44;62.34;98562.22;4995486;28;20058;-46
2023/09/18 14:31:46;;;;;;;1.17;0.80;;;;;;;19.35;62.77;98557.56;5000932;28;20049;-47
2023/09/18 14:34:13;;;;;;;1.67;0.85;;;;;;;19.23;63.08;98575.78;4988748;28;20057;-47
2023/09/18 14:36:40;;;;;;;1.83;0.93;;;;;;;19.09;63.67;98573.16;4981402;28;20054;-40
2023/09/18 14:39:08;;;;;;;1.63;0.95;;;;;;;18.92;64.14;98588.13;4978870;28;20522;-46
2023/09/18 14:41:37;;;;;;;1.35;0.50;;;;;;;18.96;63.80;98588.78;4969763;28;20050;-46
2023/09/18 14:44:05;;;;;;;1.60;0.68;;;;;;;18.97;64.13;98600.94;4973654;28;20051;-43
2023/09/18 14:46:33;;;;;;;1.45;0.50;;;;;;;18.96;64.37;98594.88;4975845;28;20124;-49
2023/09/18 14:49:01;;;;;;;2.85;2.05;;;;;;;18.98;64.36;98592.16;4980931;28;20473;-46
2023/09/18 14:51:29;;;;;;;0.60;0.50;;;;;;;18.94;63.71;98607.22;4984761;28;20046;-46
2023/09/18 14:53:57;;;;;;;0.50;0.50;;;;;;;18.70;62.92;98605.16;4982878;28;20054;-47
2023/09/18 14:56:24;;;;;;;1.55;0.63;;;;;;;18.43;62.65;98613.72;4989163;28;20133;-48
2023/09/18 14:58:52;;;;;;;0.40;0.35;;;;;;;18.19;63.08;98619.47;4986948;28;20051;-51
2023/09/18 15:01:20;;;;;;;0.47;0.40;;;;;;;18.06;64.02;98626.28;4974502;28;20137;-46
2023/09/18 15:03:48;;;;;;;0.65;0.45;;;;;;;18.01;64.07;98633.56;4984479;28;20517;-45
2023/09/18 15:06:15;;;;;;;0.90;0.70;;;;;;;17.96;63.74;98626.81;5000714;28;20132;-52
2023/09/18 15:08:42;;;;;;;1.55;0.35;;;;;;;17.88;64.21;98636.88;4999370;28;20062;-48
2023/09/18 15:11:11;;;;;;;0.50;0.28;;;;;;;17.82;64.35;98642.44;5002081;28;20133;-41
2023/09/18 15:13:38;;;;;;;0.90;0.43;;;;;;;17.73;63.71;98652.50;4983169;28;20070;-50
2023/09/18 15:16:06;;;;;;;0.43;0.20;;;;;;;17.64;63.69;98653.03;4984301;28;20047;-48
2023/09/18 15:18:33;;;;;;;1.73;0.50;;;;;;;17.60;64.39;98661.97;4999731;28;20134;-45
2023/09/18 15:21:00;;;;;;;0.90;0.60;;;;;;;17.61;63.86;98668.88;4996004;28;20141;-46
2023/09/18 15:23:27;;;;;;;2.10;2.00;;;;;;;17.61;64.23;98676.75;5005089;28;20449;-44
2023/09/18 15:25:55;;;;;;;0.93;0.40;;;;;;;17.63;65.04;98672.25;5002161;28;20124;-48
2023/09/18 15:28:24;;;;;;;1.00;0.60;;;;;;;17.71;64.79;98680.56;4995757;28;20054;-49
2023/09/18 15:30:51;;;;;;;0.98;0.73;;;;;;;17.77;64.89;98674.16;4995487;28;20499;-40
2023/09/18 15:33:22;;;;;;;2.03;0.80;;;;;;;17.78;65.00;98681.06;5002203;28;20125;-48
2023/09/18 15:35:49;;;;;;;2.78;0.60;;;;;;;17.76;64.33;98674.22;4994715;28;20088;-42
2023/09/18 15:38:16;;;;;;;2.85;2.65;;;;;;;17.68;64.79;98679.88;5006023;28;20715;-46
2023/09/18 15:40:43;;;;;;;2.47;0.70;;;;;;;17.64;64.96;98687.06;5007480;28;20060;-45
2023/09/18 15:43:10;;;;;;;2.58;0.85;;;;;;;17.63;65.15;98687.97;4995158;28;20057;-44
2023/09/18 15:45:37;;;;;;;1.10;0.57;;;;;;;17.63;64.80;98687.97;5006483;28;20061;-47
2023/09/18 15:48:04;;;;;;;1.40;0.55;;;;;;;17.66;65.10;98693.03;5006808;28;20046;-46
2023/09/18 15:50:32;;;;;;;1.08;0.73;;;;;;;17.67;65.06;98692.09;4999572;28;20050;-49
2023/09/18 15:53:04;;;;;;;1.98;0.93;;;;;;;17.68;64.40;98693.81;5005592;28;20949;-42
2023/09/18 15:55:30;;;;;;;2.00;1.27;;;;;;;17.65;64.57;98691.34;5007040;28;20052;-48
2023/09/18 15:57:57;;;;;;;1.13;0.50;;;;;;;17.64;63.96;98696.66;5004052;28;20552;-41
2023/09/18 16:00:24;;;;;;;3.10;0.85;;;;;;;17.64;64.34;98694.91;5003510;28;20046;-48
2023/09/18 16:02:51;;;;;;;1.40;0.52;;;;;;;17.62;63.54;98698.53;5003774;28;20048;-44
2023/09/18 16:05:25;;;;;;;5.88;0.90;;;;;;;17.60;61.93;98719.56;4993106;28;20057;-44
2023/09/18 16:08:02;;;;;;;3.50;0.55;;;;;;;17.62;61.27;98707.22;5001565;28;20049;-44
2023/09/18 16:10:32;;;;;;;4.70;0.95;;;;;;;17.58;61.13;98695.22;5001873;28;20044;-42
2023/09/18 16:13:00;;;;;;;3.17;1.27;;;;;;;17.55;59.80;98706.72;5004523;28;20049;-47
2023/09/18 16:15:28;;;;;;;4.25;0.68;;;;;;;17.51;59.93;98715.66;5004180;28;20045;-47
2023/09/18 16:17:55;;;;;;;3.22;0.93;;;;;;;17.45;59.65;98714.22;4994781;28;20057;-41
2023/09/18 16:20:22;;;;;;;4.38;0.60;;;;;;;17.40;60.50;98718.84;4995978;28;20564;-51
2023/09/18 16:22:49;;;;;;;4.03;0.70;;;;;;;17.36;59.81;98719.91;4998793;28;20153;-46
2023/09/18 16:25:15;;;;;;;2.47;0.75;;;;;;;17.30;59.47;98717.63;4998837;28;20041;-43
2023/09/18 16:27:47;;;;;;;0.70;0.70;;;;;;;17.23;58.83;98722.34;4995428;28;20113;-44
2023/09/18 16:30:14;;;;;;;2.40;0.80;;;;;;;17.18;58.97;98714.72;4997206;28;20461;-45
2023/09/18 16:32:41;;;;;;;1.73;1.00;;;;;;;17.11;58.13;98722.94;4986266;28;20725;-46
2023/09/18 16:35:08;;;;;;;2.38;1.13;;;;;;;17.04;57.71;98720.63;4998740;28;20153;-48
2023/09/18 16:37:35;;;;;;;2.13;0.60;;;;;;;16.98;57.58;98733.19;5000559;28;20049;-46
2023/09/18 16:40:03;;;;;;;3.15;0.90;;;;;;;16.90;57.00;98741.41;5001634;28;20472;-44
2023/09/18 16:42:30;;;;;;;3.30;1.17;;;;;;;16.81;57.46;98734.84;5016053;22;20100;-90
2023/09/18 16:45:00;;;;;;;3.90;0.82;;;;;;;16.77;56.82;98743.78;5014146;28;20060;-88
2023/09/18 16:47:34;;;;;;;6.35;1.38;;;;;;;16.65;55.76;98738.22;5017120;28;20485;-90
2023/09/18 16:50:05;;;;;;;5.97;1.13;;;;;;;16.62;56.02;98738.38;5009559;28;20568;-90
2023/09/18 16:52:32;;;;;;;3.30;0.88;;;;;;;16.60;56.11;98745.44;4934844;22;20101;-46
2023/09/18 16:55:03;;;;;;;2.30;1.15;;;;;;;16.55;55.73;98756.13;4931730;28;20134;-48
2023/09/18 16:57:32;;;;;;;4.15;0.65;;;;;;;16.50;55.42;98759.88;4923618;28;20074;-46
2023/09/18 16:59:59;;;;;;;3.78;1.20;;;;;;;16.44;55.83;98761.88;4954776;28;20494;-49
2023/09/18 17:02:26;;;;;;;3.80;0.80;;;;;;;16.40;55.59;98770.78;4937323;28;20043;-45
2023/09/18 17:04:53;;;;;;;3.03;0.80;;;;;;;16.34;55.52;98771.06;4923815;28;20129;-46
2023/09/18 17:07:21;;;;;;;2.67;0.60;;;;;;;16.32;56.33;98778.16;4923387;28;20063;-43
2023/09/18 17:09:48;;;;;;;5.82;1.02;;;;;;;16.29;56.76;98780.88;4922723;28;20174;-48
2023/09/18 17:12:15;;;;;;;3.28;0.73;;;;;;;16.25;57.04;98795.03;4923606;28;20411;-43
2023/09/18 17:14:42;;;;;;;5.93;0.90;;;;;;;16.21;56.74;98796.09;4919707;28;20044;-42
2023/09/18 17:17:09;;;;;;;2.10;0.75;;;;;;;16.04;57.48;98789.84;4921624;28;20051;-43
2023/09/18 17:19:36;;;;;;;1.63;0.63;;;;;;;16.07;56.72;98784.50;4921009;28;20048;-44
2023/09/18 17:22:03;;;;;;;2.78;1.20;;;;;;;16.04;56.43;98798.53;4917483;28;20059;-47
2023/09/18 17:24:36;;;;;;;6.13;0.70;;;;;;;16.00;56.76;98798.75;4920671;28;20051;-48
2023/09/18 17:27:05;;;;;;;2.00;0.80;;;;;;;15.93;56.59;98804.22;4920764;28;20044;-44
2023/09/18 17:29:32;;;;;;;3.92;1.33;;;;;;;15.88;56.54;98806.19;4916601;28;20059;-45
2023/09/18 17:31:59;;;;;;;3.03;0.68;;;;;;;15.83;56.71;98808.16;4915901;28;20416;-44
2023/09/18 17:34:27;;;;;;;6.63;1.00;;;;;;;15.77;57.44;98809.28;4923917;28;20043;-51
2023/09/18 17:36:55;;;;;;;2.42;0.30;;;;;;;15.73;57.38;98810.31;4921281;28;20118;-44
2023/09/18 17:39:23;;;;;;;1.30;0.90;;;;;;;15.70;57.31;98809.63;4924039;28;20048;-46
2023/09/18 17:41:49;;;;;;;3.65;0.80;;;;;;;15.66;57.89;98812.38;4925770;28;20062;-46
2023/09/18 17:44:16;;;;;;;3.75;1.25;;;;;;;15.62;58.01;98817.78;4904574;28;20048;-47
2023/09/18 17:46:46;;;;;;;4.45;0.60;;;;;;;15.58;57.68;98822.28;4903273;28;20079;-47
2023/09/18 17:49:14;;;;;;;4.63;0.73;;;;;;;15.54;57.85;98831.16;4900317;28;20085;-43
2023/09/18 17:51:40;;;;;;;3.65;0.60;;;;;;;15.49;58.68;98835.72;4910525;28;20053;-45
2023/09/18 17:54:08;;;;;;;4.35;1.20;;;;;;;15.45;58.56;98834.16;4907938;28;20067;-44
2023/09/18 17:56:35;;;;;;;1.70;0.75;;;;;;;15.39;58.65;98832.66;4905848;28;20056;-49
2023/09/18 17:59:03;;;;;;;1.52;0.50;;;;;;;15.35;58.80;98833.69;4905789;28;20111;-54
2023/09/18 18:01:29;;;;;;;4.75;0.80;;;;;;;15.31;58.87;98843.44;4905904;28;20060;-41
2023/09/18 18:03:57;;;;;;;3.20;0.93;;;;;;;15.23;58.56;98850.72;4906197;28;20512;-43
2023/09/18 18:06:25;;;;;;;3.28;1.10;;;;;;;15.21;58.89;98852.53;4904180;28;20048;-42
2023/09/18 18:08:53;;;;;;;4.30;0.90;;;;;;;15.12;58.31;98857.22;4909181;28;20135;-44
2023/09/18 18:11:20;;;;;;;5.15;1.20;;;;;;;15.10;58.69;98851.19;4905148;28;20051;-38
2023/09/18 18:13:47;;;;;;;1.30;0.47;;;;;;;15.05;58.95;98860.97;4901951;28;20056;-47
2023/09/18 18:16:14;;;;;;;4.63;0.88;;;;;;;15.01;58.92;98862.03;4914355;28;20130;-43
2023/09/18 18:18:40;;;;;;;2.80;0.75;;;;;;;14.99;58.30;98866.44;4899271;28;20113;-49
2023/09/18 18:21:07;;;;;;;6.72;0.30;;;;;;;14.96;58.76;98864.81;4903638;28;20131;-45
2023/09/18 18:23:34;;;;;;;3.95;0.75;;;;;;;14.88;58.34;98867.72;4908138;28;20055;-48
2023/09/18 18:26:07;;;;;;;4.05;0.70;;;;;;;14.89;59.01;98872.03;4909968;28;20106;-45
2023/09/18 18:28:34;;;;;;;5.28;0.85;;;;;;;14.85;59.13;98874.81;4907722;28;20090;-49
2023/09/18 18:31:01;;;;;;;1.85;0.50;;;;;;;14.84;58.54;98878.31;4901675;28;20056;-49
2023/09/18 18:33:28;;;;;;;4.40;0.80;;;;;;;14.80;58.89;98880.22;4907402;28;20063;-46
2023/09/18 18:35:55;;;;;;;1.88;0.75;;;;;;;14.79;59.12;98894.13;4906994;28;20632;-45
2023/09/18 18:38:22;;;;;;;3.75;0.82;;;;;;;14.78;59.17;98897.66;4911587;28;20044;-47
2023/09/18 18:40:57;;;;;;;5.13;0.70;;;;;;;14.73;58.83;98889.97;4908485;28;20467;-48
2023/09/18 18:43:24;;;;;;;3.80;2.67;;;;;;;14.74;59.16;98893.44;4896084;28;20467;-46
2023/09/18 18:45:54;;;;;;;4.28;0.80;;;;;;;14.72;58.98;98898.72;4902234;28;20478;-39
2023/09/18 18:48:22;;;;;;;6.00;0.60;;;;;;;14.71;59.21;98897.03;4903820;28;20048;-43
2023/09/18 18:50:49;;;;;;;2.92;1.20;;;;;;;14.71;59.29;98901.38;4900717;28;20412;-43
2023/09/18 18:53:16;;;;;;;4.38;1.00;;;;;;;14.69;59.70;98898.81;4911281;28;20056;-41
2023/09/18 18:55:46;;;;;;;3.88;1.00;;;;;;;14.68;59.14;98901.47;4910058;28;20159;-48
2023/09/18 18:58:13;;;;;;;4.05;0.57;;;;;;;14.63;59.47;98905.13;4904181;28;20059;-46
2023/09/18 19:00:41;;;;;;;3.78;0.63;;;;;;;14.59;59.42;98913.97;4910020;28;20052;-40
2023/09/18 19:03:09;;;;;;;3.05;0.80;;;;;;;14.54;59.61;98915.91;4904154;28;20122;-47
2023/09/18 19:05:38;;;;;;;4.35;0.57;;;;;;;14.48;59.34;98922.19;4905240;28;20051;-47
2023/09/18 19:08:05;;;;;;;1.58;0.73;;;;;;;14.43;59.32;98918.06;4907494;28;20656;-45
2023/09/18 19:10:32;;;;;;;2.45;0.68;;;;;;;14.38;59.12;98920.81;4908587;28;20060;-48
2023/09/18 19:12:58;;;;;;;1.60;0.80;;;;;;;14.33;59.08;98927.97;4912862;28;20852;-44
2023/09/18 19:15:26;;;;;;;2.28;0.57;;;;;;;14.29;58.91;98937.66;4908018;28;20056;-44
2023/09/18 19:17:53;;;;;;;1.25;0.45;;;;;;;14.24;59.34;98936.94;4900021;28;20501;-43
2023/09/18 19:20:20;;;;;;;1.77;0.60;;;;;;;14.19;59.27;98947.53;4912621;28;20052;-40
2023/09/18 19:22:48;;;;;;;1.30;0.45;;;;;;;14.17;59.06;98958.91;4910915;28;20055;-43
2023/09/18 19:25:14;;;;;;;2.83;0.77;;;;;;;14.11;59.10;98960.81;4904474;28;20685;-49
2023/09/18 19:27:41;;;;;;;2.17;0.80;;;;;;;14.08;59.64;98971.34;4913647;28;20057;-48
2023/09/18 19:30:09;;;;;;;3.00;0.95;;;;;;;14.03;59.93;98968.06;4908640;28;20056;-43
2023/09/18 19:32:38;;;;;;;1.58;0.52;;;;;;;14.01;59.85;98975.06;4905104;28;20102;-42
2023/09/18 19:35:06;;;;;;;2.13;0.50;;;;;;;13.95;59.20;98972.69;4906235;28;20143;-46
2023/09/18 19:37:33;;;;;;;3.45;0.70;;;;;;;13.92;59.25;98981.44;4904969;28;20052;-45
2023/09/18 19:40:00;;;;;;;0.60;0.38;;;;;;;13.88;59.54;98980.69;4904627;28;20056;-46
2023/09/18 19:42:27;;;;;;;2.70;0.85;;;;;;;13.83;59.64;98982.59;4903724;28;20061;-46
2023/09/18 19:44:54;;;;;;;1.00;0.40;;;;;;;13.83;60.05;98987.81;4911760;28;20056;-50
2023/09/18 19:47:21;;;;;;;1.50;0.30;;;;;;;13.82;60.20;98991.28;4901101;28;20135;-42
2023/09/18 19:49:48;;;;;;;4.53;0.60;;;;;;;13.77;59.79;98981.97;4899454;28;20052;-52
2023/09/18 19:52:17;;;;;;;1.13;0.55;;;;;;;13.75;60.00;98984.63;4899247;28;21873;-48
2023/09/18 19:54:43;;;;;;;1.67;1.30;;;;;;;13.70;60.54;98991.69;4901670;28;20156;-47
2023/09/18 19:57:10;;;;;;;1.35;0.43;;;;;;;13.65;59.82;98988.41;4900267;28;20048;-42
2023/09/18 19:59:37;;;;;;;1.15;0.80;;;;;;;13.63;59.87;98996.25;4901463;28;20044;-45
2023/09/18 20:02:06;;;;;;;2.50;0.43;;;;;;;13.60;60.42;98997.22;4897891;28;20044;-48
2023/09/18 20:04:33;;;;;;;1.80;0.50;;;;;;;13.54;60.18;99000.00;4904863;28;20083;-43
2023/09/18 20:07:00;;;;;;;2.03;0.65;;;;;;;13.53;60.31;99010.44;4904277;28;20635;-44
2023/09/18 20:09:27;;;;;;;1.55;0.47;;;;;;;13.51;60.46;99007.88;4906382;28;20056;-46
2023/09/18 20:11:54;;;;;;;1.95;0.57;;;;;;;13.52;60.44;99009.63;4903516;28;20622;-40
2023/09/18 20:14:21;;;;;;;1.33;0.80;;;;;;;13.50;61.17;99006.19;4901369;28;20434;-44
2023/09/18 20:16:57;;;;;;;2.25;0.30;;;;;;;13.47;61.43;99007.13;4905448;28;20072;-43
2023/09/18 20:19:24;;;;;;;1.70;0.55;;;;;;;13.46;60.39;99007.16;4896876;28;20048;-45
2023/09/18 20:21:51;;;;;;;1.60;0.65;;;;;;;13.44;61.13;99008.97;4901840;28;20139;-45
2023/09/18 20:24:19;;;;;;;1.23;0.55;;;;;;;13.40;61.43;99009.97;4902116;28;20054;-45
2023/09/18 20:26:48;;;;;;;3.00;0.90;;;;;;;13.36;61.32;99009.22;4901860;28;20052;-46
2023/09/18 20:29:15;;;;;;;3.83;1.15;;;;;;;13.31;60.83;99018.91;4904370;28;20127;-46
2023/09/18 20:31:42;;;;;;;1.75;0.60;;;;;;;13.29;62.23;99011.16;4903784;28;20055;-40
2023/09/18 20:34:09;;;;;;;4.18;0.50;;;;;;;13.26;62.00;99011.25;4903069;28;20087;-45
2023/09/18 20:36:36;;;;;;;1.10;0.77;;;;;;;13.23;60.91;99013.94;4903278;28;20052;-41
2023/09/18 20:39:04;;;;;;;3.67;0.75;;;;;;;13.19;61.36;99017.53;4902675;28;20106;-45
2023/09/18 20:41:32;;;;;;;4.65;0.68;;;;;;;13.17;62.33;99014.13;4903111;28;20058;-48